createdAt,value
2023-01-19T00:05:20.300Z,31.6
2023-01-19T00:10:42.794Z,30.2
2023-01-19T00:16:06.678Z,29.2
2023-01-19T00:21:15.675Z,33.3
2023-01-19T00:26:23.540Z,33.4
2023-01-19T00:31:46.152Z,30.9
2023-01-19T00:37:09.767Z,29.8
2023-01-19T00:42:31.553Z,30.4
2023-01-19T00:47:54.132Z,34.4
2023-01-19T00:53:17.879Z,31.8
2023-01-19T00:58:40.224Z,30.3
2023-01-19T01:04:18.325Z,29.3
2023-01-19T01:09:25.194Z,32.6
2023-01-19T01:15:21.830Z,33.7
2023-01-19T01:20:45.087Z,30.8
2023-01-19T01:26:08.597Z,29.8
2023-01-19T01:31:33.511Z,28.1
2023-01-19T01:37:18.147Z,33.8
2023-01-19T01:42:40.430Z,32.3
2023-01-19T01:47:47.362Z,30.4
2023-01-19T01:53:24.102Z,29.5
2023-01-19T01:58:46.364Z,30.4
2023-01-19T02:03:55.754Z,34.5
2023-01-19T02:09:19.316Z,31.8
2023-01-19T02:14:42.096Z,30.2
2023-01-19T02:20:03.664Z,29.3
2023-01-19T02:25:11.226Z,30.7
2023-01-19T02:30:34.031Z,34.6
2023-01-19T02:35:56.977Z,31.6
2023-01-19T02:41:20.044Z,30.1
2023-01-19T02:46:42.787Z,29.3
2023-01-19T02:52:05.642Z,30.7
2023-01-19T02:57:28.661Z,34.3
2023-01-19T03:02:52.528Z,31.5
2023-01-19T03:07:58.481Z,30.1
2023-01-19T03:13:05.676Z,29.3
2023-01-19T03:18:30.590Z,31.1
2023-01-19T03:23:52.384Z,34
2023-01-19T03:29:15.671Z,31.4
2023-01-19T03:34:38.593Z,30.1
2023-01-19T03:40:00.631Z,29.1
2023-01-19T03:45:08.235Z,31.3
2023-01-19T03:50:31.289Z,34
2023-01-19T03:55:53.126Z,31.4
2023-01-19T04:01:15.947Z,30.1
2023-01-19T04:06:39.383Z,29.1
2023-01-19T04:12:01.383Z,31.2
2023-01-19T04:17:24.325Z,33.9
2023-01-19T04:22:47.251Z,31.3
2023-01-19T04:28:10.347Z,30
2023-01-19T04:33:33.867Z,29.2
2023-01-19T04:38:43.397Z,32.1
2023-01-19T04:44:06.232Z,33.9
2023-01-19T04:49:15.099Z,31.2
2023-01-19T04:54:22.958Z,30
2023-01-19T04:59:45.423Z,29.1
2023-01-19T05:05:08.907Z,31.9
2023-01-19T05:10:15.903Z,33.9
2023-01-19T05:15:37.695Z,31.3
2023-01-19T05:20:47.741Z,30
2023-01-19T05:25:55.250Z,29.1
2023-01-19T05:31:02.840Z,30.9
2023-01-19T05:36:39.207Z,34.3
2023-01-19T05:42:12.130Z,31.4
2023-01-19T05:47:36.277Z,30.1
2023-01-19T05:52:59.327Z,29.2
2023-01-19T05:58:21.950Z,31.8
2023-01-19T06:03:45.547Z,32.2
2023-01-19T06:09:11.359Z,30.1
2023-01-19T06:14:18.035Z,29.2
2023-01-19T06:19:41.138Z,28.4
2023-01-19T06:25:05.829Z,27.6
2023-01-19T06:30:28.042Z,26.8
2023-01-19T06:35:51.794Z,28.3
2023-01-19T06:41:14.354Z,32.3
2023-01-19T06:46:22.290Z,30.4
2023-01-19T06:51:44.503Z,29.4
2023-01-19T06:57:13.423Z,28.6
2023-01-19T07:03:01.148Z,27.6
2023-01-19T07:08:23.582Z,26.8
2023-01-19T07:14:48.053Z,29.6
2023-01-19T07:20:11.422Z,31.8
2023-01-19T07:25:34.276Z,30.1
2023-01-19T07:30:56.865Z,29.2
2023-01-19T07:36:20.347Z,28.3
2023-01-19T07:41:43.005Z,27.4
2023-01-19T07:47:05.963Z,26.2
2023-01-19T07:52:28.595Z,32.8
2023-01-19T07:57:50.911Z,31
2023-01-19T08:03:15.280Z,29.8
2023-01-19T08:08:38.598Z,28.9
2023-01-19T08:13:45.485Z,28
2023-01-19T08:19:08.592Z,27.2
2023-01-19T08:24:31.449Z,32.2
2023-01-19T08:29:56.630Z,32.1
2023-01-19T08:35:17.185Z,31.1
2023-01-19T08:40:39.844Z,30
2023-01-19T08:46:11.136Z,29
2023-01-19T08:51:34.149Z,28
2023-01-19T08:56:57.251Z,27.1
2023-01-19T09:02:15.560Z,26.3
2023-01-19T09:07:23.721Z,28.5
2023-01-19T09:12:46.925Z,32.6
2023-01-19T09:18:10.183Z,31.8
2023-01-19T09:23:32.979Z,30.7
2023-01-19T09:28:55.612Z,29.7
2023-01-19T09:34:18.890Z,28.7
2023-01-19T09:39:42.666Z,27.8
2023-01-19T09:45:05.660Z,26.9
2023-01-19T09:50:28.508Z,26.1
2023-01-19T09:55:51.603Z,25.3
2023-01-19T10:01:14.924Z,24.7
2023-01-19T10:06:40.939Z,24.2
2023-01-19T10:12:15.075Z,23.8
2023-01-19T10:17:37.850Z,23.4
2023-01-19T10:22:47.624Z,23.1
2023-01-19T10:28:11.113Z,22.8
2023-01-19T10:33:35.670Z,22.6
2023-01-19T10:38:58.835Z,22.4
2023-01-19T10:44:08.307Z,22.2
2023-01-19T10:49:31.423Z,22.1
2023-01-19T10:54:38.836Z,21.9
2023-01-19T10:59:30.569Z,21.8
2023-01-19T11:04:39.367Z,21.7
2023-01-19T11:09:46.386Z,21.6
2023-01-19T11:15:08.828Z,21.5
2023-01-19T11:20:31.333Z,21.4
2023-01-19T11:25:53.522Z,21.4
2023-01-19T11:31:17.178Z,21.3
2023-01-19T11:36:40.477Z,21.2
2023-01-19T11:42:02.667Z,21.2
2023-01-19T11:52:32.958Z,21.1
2023-01-19T11:57:39.490Z,21
2023-01-19T12:02:47.529Z,20.9
2023-01-19T12:07:55.301Z,20.9
2023-01-19T12:13:02.268Z,20.9
2023-01-19T12:18:25.218Z,20.9
2023-01-19T12:23:52.293Z,20.8
2023-01-19T12:29:15.353Z,20.8
2023-01-19T12:34:24.920Z,20.8
2023-01-19T12:39:48.129Z,20.7
2023-01-19T12:45:10.907Z,20.7
2023-01-19T12:50:38.569Z,20.6
2023-01-19T12:56:03.570Z,20.6
2023-01-19T13:01:25.685Z,20.6
2023-01-19T13:06:48.770Z,20.5
2023-01-19T13:12:17.363Z,20.4
2023-01-19T13:17:39.610Z,20.4
2023-01-19T13:23:02.310Z,20.4
2023-01-19T13:28:24.821Z,20.3
2023-01-19T13:33:47.946Z,20.3
2023-01-19T13:39:11.530Z,20.2
2023-01-19T13:44:34.637Z,20.2
2023-01-19T13:49:45.036Z,20.1
2023-01-19T13:55:10.847Z,20.1
2023-01-19T14:00:34.334Z,20.1
2023-01-19T14:05:59.368Z,20
2023-01-19T14:11:22.212Z,20
2023-01-19T14:16:53.911Z,19.9
2023-01-19T14:22:18.029Z,19.9
2023-01-19T14:27:41.007Z,19.9
2023-01-19T14:33:03.693Z,19.9
2023-01-19T14:38:10.897Z,19.9
2023-01-19T14:43:34.002Z,19.9
2023-01-19T14:48:57.149Z,19.9
2023-01-19T14:54:34.460Z,19.9
2023-01-19T14:59:57.615Z,19.9
2023-01-19T15:05:33.951Z,19.9
2023-01-19T15:10:56.371Z,19.9
2023-01-19T15:16:03.776Z,19.9
2023-01-19T15:21:27.047Z,19.9
2023-01-19T15:26:34.667Z,19.9
2023-01-19T15:31:42.545Z,19.9
2023-01-19T15:36:51.395Z,19.9
2023-01-19T15:41:43.048Z,19.9
2023-01-19T15:46:34.371Z,19.9
2023-01-19T15:51:42.664Z,19.8
2023-01-19T15:56:35.188Z,19.8
2023-01-19T16:01:58.045Z,19.9
2023-01-19T16:07:23.713Z,19.8
2023-01-19T16:12:47.071Z,19.8
2023-01-19T16:18:11.549Z,19.8
2023-01-19T16:23:48.185Z,19.8
2023-01-19T16:29:11.082Z,19.8
2023-01-19T16:34:18.193Z,19.8
2023-01-19T16:39:27.795Z,19.8
2023-01-19T16:44:52.926Z,19.8
2023-01-19T16:50:14.971Z,19.8
2023-01-19T16:55:37.724Z,19.8
2023-01-19T17:00:45.775Z,19.8
2023-01-19T17:06:08.473Z,19.7
2023-01-19T17:11:31.641Z,27.7
2023-01-19T17:16:54.638Z,32.1
2023-01-19T17:22:01.286Z,32.6
2023-01-19T17:27:24.158Z,30.8
2023-01-19T17:32:16.809Z,31.4
2023-01-19T17:37:24.312Z,32.5
2023-01-19T17:42:31.453Z,30.7
2023-01-19T17:47:22.846Z,29.7
2023-01-19T17:52:17.057Z,30.8
2023-01-19T17:57:24.769Z,32.4
2023-01-19T18:02:49.341Z,31.3
2023-01-19T18:08:13.679Z,30.3
2023-01-19T18:13:23.596Z,29.3
2023-01-19T18:18:48.217Z,28.5
2023-01-19T18:24:12.911Z,27.7
2023-01-19T18:29:21.846Z,26.8
2023-01-19T18:34:47.085Z,26.1
2023-01-19T18:40:12.969Z,30.8
2023-01-19T18:45:37.916Z,32.4
2023-01-19T18:51:11.013Z,31.3
2023-01-19T18:56:46.489Z,30.3
2023-01-19T19:02:26.214Z,29.4
2023-01-19T19:08:07.397Z,28.4
2023-01-19T19:13:26.771Z,27.5
2023-01-19T19:18:47.516Z,26.7
2023-01-19T19:24:05.708Z,26.1
2023-01-19T19:29:26.460Z,31.6
2023-01-19T19:34:47.850Z,32.1
2023-01-19T19:40:29.261Z,31.1
2023-01-19T19:46:11.617Z,30
2023-01-19T19:51:46.327Z,29
2023-01-19T19:57:24.420Z,28.1
2023-01-19T20:02:49.778Z,27.1
2023-01-19T20:08:29.412Z,26.3
2023-01-19T20:14:11.778Z,30.5
2023-01-19T20:19:36.162Z,32.3
2023-01-19T20:25:13.742Z,31.1
2023-01-19T20:30:32.966Z,30
2023-01-19T20:35:47.732Z,29.1
2023-01-19T20:41:00.387Z,28.1
2023-01-19T20:46:13.103Z,27.4
2023-01-19T20:51:23.162Z,26.7
2023-01-19T20:56:34.196Z,25.9
2023-01-19T21:01:47.752Z,29.2
2023-01-19T21:07:00.361Z,32.7
2023-01-19T21:12:13.973Z,31.4
2023-01-19T21:17:24.092Z,30.3
2023-01-19T21:22:25.641Z,29.5
2023-01-19T21:27:33.144Z,28.7
2023-01-19T21:32:41.403Z,27.9
2023-01-19T21:37:33.369Z,27.1
2023-01-19T21:42:40.994Z,26.4
2023-01-19T21:47:48.441Z,27.4
2023-01-19T21:52:56.304Z,31.9
2023-01-19T21:58:03.336Z,31.9
2023-01-19T22:03:36.972Z,30.9
2023-01-19T22:08:44.277Z,30.5
2023-01-19T22:13:53.346Z,33.1
2023-01-19T22:19:00.828Z,34.2
2023-01-19T22:23:52.834Z,31.8
2023-01-19T22:29:00.132Z,31.3
2023-01-19T22:34:08.131Z,33.9
2023-01-19T22:39:31.729Z,32.4
2023-01-19T22:44:54.600Z,30.9
2023-01-19T22:50:19.099Z,31.9
2023-01-19T22:55:26.890Z,34.3
2023-01-19T23:00:48.983Z,31.9
2023-01-19T23:05:58.445Z,30.6
2023-01-19T23:11:21.128Z,30.4
2023-01-19T23:16:28.035Z,33.6
2023-01-19T23:21:35.572Z,32.6
2023-01-19T23:26:43.115Z,30.9
2023-01-19T23:32:05.975Z,30.1
2023-01-19T23:37:28.226Z,32.1
2023-01-19T23:42:50.371Z,33.6
2023-01-19T23:48:13.120Z,31.6
2023-01-19T23:53:04.496Z,30.4
2023-01-19T23:57:55.745Z,28.7
